createdAt,value
2019-04-29T00:00:54.354Z,2.55
2019-04-29T00:01:58.707Z,3.37
2019-04-29T00:03:02.968Z,3.47
2019-04-29T00:04:07.634Z,4.72
2019-04-29T00:05:12.276Z,4.00
2019-04-29T00:06:16.655Z,3.80
2019-04-29T00:07:21.003Z,4.47
2019-04-29T00:08:25.471Z,6.05
2019-04-29T00:09:31.585Z,4.28
2019-04-29T00:10:37.500Z,3.10
2019-04-29T00:11:41.823Z,4.80
2019-04-29T00:12:46.023Z,7.67
2019-04-29T00:13:50.207Z,3.87
2019-04-29T00:15:00.325Z,2.70
2019-04-29T00:16:23.851Z,3.98
2019-04-29T00:17:35.185Z,5.15
2019-04-29T00:18:57.244Z,5.20
2019-04-29T00:20:20.172Z,4.70
2019-04-29T00:21:24.979Z,3.62
2019-04-29T00:22:29.296Z,2.70
2019-04-29T00:23:33.570Z,4.10
2019-04-29T00:24:37.938Z,3.67
2019-04-29T00:25:42.239Z,2.77
2019-04-29T00:26:46.515Z,3.67
2019-04-29T00:27:50.762Z,2.70
2019-04-29T00:28:54.941Z,3.77
2019-04-29T00:29:59.340Z,2.70
2019-04-29T00:31:04.269Z,3.95
2019-04-29T00:32:09.037Z,4.25
2019-04-29T00:33:13.154Z,4.65
2019-04-29T00:34:17.361Z,4.53
2019-04-29T00:35:21.732Z,6.58
2019-04-29T00:36:28.560Z,3.80
2019-04-29T00:37:50.733Z,3.12
2019-04-29T00:39:24.375Z,3.77
2019-04-29T00:40:50.507Z,8.80
2019-04-29T00:42:10.272Z,5.37
2019-04-29T00:43:29.780Z,4.35
2019-04-29T00:44:34.005Z,7.80
2019-04-29T00:45:38.206Z,6.17
2019-04-29T00:46:42.346Z,2.72
2019-04-29T00:47:46.676Z,3.72
2019-04-29T00:48:50.963Z,3.30
2019-04-29T00:49:55.179Z,5.33
2019-04-29T00:50:59.399Z,4.47
2019-04-29T00:52:03.681Z,3.87
2019-04-29T00:53:08.061Z,5.20
2019-04-29T00:54:19.257Z,4.58
2019-04-29T00:55:25.586Z,3.52
2019-04-29T00:56:29.894Z,5.80
2019-04-29T00:57:34.225Z,5.20
2019-04-29T00:58:38.407Z,3.17
2019-04-29T00:59:42.703Z,4.62
2019-04-29T01:00:46.976Z,5.17
2019-04-29T01:01:51.285Z,4.28
2019-04-29T01:02:55.425Z,4.92
2019-04-29T01:03:59.935Z,4.42
2019-04-29T01:05:04.702Z,4.17
2019-04-29T01:06:09.167Z,5.10
2019-04-29T01:07:13.595Z,5.00
2019-04-29T01:08:17.977Z,6.25
2019-04-29T01:09:22.138Z,5.47
2019-04-29T01:10:26.403Z,4.22
2019-04-29T01:11:30.638Z,3.22
2019-04-29T01:12:36.633Z,3.80
2019-04-29T01:13:41.294Z,2.90
2019-04-29T01:14:45.544Z,3.98
2019-04-29T01:15:49.857Z,5.50
2019-04-29T01:16:54.269Z,5.47
2019-04-29T01:17:58.695Z,11.43
2019-04-29T01:19:04.002Z,6.33
2019-04-29T01:20:09.437Z,8.08
2019-04-29T01:21:13.812Z,6.20
2019-04-29T01:22:18.001Z,4.33
2019-04-29T01:23:22.335Z,4.12
2019-04-29T01:24:26.613Z,4.08
2019-04-29T01:25:30.833Z,7.47
2019-04-29T01:27:00.215Z,5.90
2019-04-29T01:28:11.373Z,4.83
2019-04-29T01:29:16.507Z,4.35
2019-04-29T01:31:06.099Z,4.67
2019-04-29T01:32:10.431Z,3.67
2019-04-29T01:33:14.681Z,4.97
2019-04-29T01:34:23.759Z,3.92
2019-04-29T01:35:28.090Z,6.83
2019-04-29T01:36:37.864Z,6.17
2019-04-29T01:37:43.289Z,5.10
2019-04-29T01:38:48.805Z,4.60
2019-04-29T01:40:04.598Z,5.30
2019-04-29T01:41:14.161Z,5.90
2019-04-29T01:42:21.910Z,4.65
2019-04-29T01:43:45.127Z,7.20
2019-04-29T01:44:49.375Z,5.62
2019-04-29T01:45:53.736Z,2.92
2019-04-29T01:46:58.239Z,2.92
2019-04-29T01:48:02.553Z,3.08
2019-04-29T01:49:06.715Z,4.17
2019-04-29T01:50:11.075Z,4.12
2019-04-29T01:51:15.409Z,8.05
2019-04-29T01:52:19.785Z,4.00
2019-04-29T01:53:24.443Z,5.37
2019-04-29T01:54:28.680Z,3.20
2019-04-29T01:55:32.855Z,3.83
2019-04-29T01:56:37.138Z,3.92
2019-04-29T01:57:41.340Z,3.65
2019-04-29T01:58:45.646Z,4.12
2019-04-29T01:59:50.181Z,5.05
2019-04-29T02:00:54.685Z,5.03
2019-04-29T02:01:59.109Z,5.78
2019-04-29T02:03:03.368Z,7.10
2019-04-29T02:04:07.717Z,4.97
2019-04-29T02:05:11.909Z,3.37
2019-04-29T02:06:16.041Z,3.65
2019-04-29T02:07:20.251Z,3.08
2019-04-29T02:08:24.567Z,7.80
2019-04-29T02:09:36.753Z,3.65
2019-04-29T02:10:41.097Z,4.08
2019-04-29T02:11:45.431Z,4.08
2019-04-29T02:12:49.841Z,3.92
2019-04-29T02:13:54.346Z,3.58
2019-04-29T02:14:58.517Z,6.78
2019-04-29T02:16:02.809Z,3.80
2019-04-29T02:17:07.138Z,6.70
2019-04-29T02:18:11.395Z,3.45
2019-04-29T02:19:15.611Z,6.75
2019-04-29T02:20:19.889Z,2.80
2019-04-29T02:21:24.069Z,6.40
2019-04-29T02:22:47.430Z,6.75
2019-04-29T02:23:58.054Z,3.92
2019-04-29T02:25:15.899Z,5.75
2019-04-29T02:26:20.354Z,4.55
2019-04-29T02:27:24.475Z,6.25
2019-04-29T02:28:28.598Z,6.75
2019-04-29T02:29:32.935Z,7.12
2019-04-29T02:30:43.116Z,6.35
2019-04-29T02:31:48.040Z,4.97
2019-04-29T02:32:52.395Z,7.08
2019-04-29T02:33:56.595Z,4.20
2019-04-29T02:35:00.990Z,4.37
2019-04-29T02:36:05.316Z,7.33
2019-04-29T02:37:11.237Z,4.37
2019-04-29T02:38:33.128Z,6.00
2019-04-29T02:39:42.882Z,7.22
2019-04-29T02:41:04.994Z,3.75
2019-04-29T02:42:28.644Z,4.72
2019-04-29T02:43:34.808Z,5.17
2019-04-29T02:44:39.175Z,7.83
2019-04-29T02:45:43.406Z,6.97
2019-04-29T02:46:47.650Z,2.72
2019-04-29T02:47:51.878Z,5.05
2019-04-29T02:48:56.140Z,6.70
2019-04-29T02:50:00.558Z,4.80
2019-04-29T02:51:04.977Z,6.65
2019-04-29T02:52:09.391Z,5.40
2019-04-29T02:53:13.779Z,3.37
2019-04-29T02:54:18.103Z,5.22
2019-04-29T02:55:35.485Z,4.10
2019-04-29T02:56:40.647Z,10.10
2019-04-29T02:58:03.895Z,3.83
2019-04-29T02:59:08.976Z,4.33
2019-04-29T03:00:39.081Z,4.28
2019-04-29T03:02:20.754Z,3.95
2019-04-29T03:03:32.313Z,3.70
2019-04-29T03:04:55.534Z,5.15
2019-04-29T03:06:01.601Z,8.03
2019-04-29T03:07:05.922Z,9.05
2019-04-29T03:08:10.262Z,6.00
2019-04-29T03:09:15.043Z,6.55
2019-04-29T03:10:19.300Z,3.70
2019-04-29T03:11:24.067Z,2.90
2019-04-29T03:12:28.389Z,6.10
2019-04-29T03:13:32.719Z,5.67
2019-04-29T03:14:38.107Z,3.27
2019-04-29T03:15:43.998Z,3.30
2019-04-29T03:16:49.067Z,6.08
2019-04-29T03:17:53.696Z,5.60
2019-04-29T03:19:02.577Z,4.75
2019-04-29T03:20:35.060Z,4.30
2019-04-29T03:21:52.378Z,3.25
2019-04-29T03:23:21.704Z,5.95
2019-04-29T03:24:26.179Z,4.00
2019-04-29T03:25:30.505Z,4.05
2019-04-29T03:26:34.845Z,3.70
2019-04-29T03:27:39.081Z,4.25
2019-04-29T03:28:43.332Z,3.62
2019-04-29T03:29:47.763Z,6.80
2019-04-29T03:30:52.166Z,3.05
2019-04-29T03:31:57.785Z,3.15
2019-04-29T03:33:01.953Z,6.20
2019-04-29T03:34:06.172Z,7.22
2019-04-29T03:35:10.677Z,9.18
2019-04-29T03:36:14.966Z,3.70
2019-04-29T03:37:19.236Z,4.17
2019-04-29T03:38:23.531Z,5.62
2019-04-29T03:39:27.866Z,5.20
2019-04-29T03:40:32.292Z,6.95
2019-04-29T03:41:36.594Z,4.50
2019-04-29T03:42:40.709Z,5.78
2019-04-29T03:43:44.857Z,6.10
2019-04-29T03:44:49.288Z,3.55
2019-04-29T03:45:53.849Z,5.15
2019-04-29T03:46:58.407Z,4.65
2019-04-29T03:48:02.682Z,5.00
2019-04-29T03:49:07.024Z,6.65
2019-04-29T03:50:11.560Z,4.28
2019-04-29T03:51:15.816Z,4.20
2019-04-29T03:52:20.129Z,5.87
2019-04-29T03:53:28.281Z,4.47
2019-04-29T03:54:30.929Z,3.40
2019-04-29T03:55:40.117Z,4.08
2019-04-29T03:56:42.963Z,5.28
2019-04-29T03:57:47.261Z,3.72
2019-04-29T03:58:51.527Z,3.62
2019-04-29T03:59:57.054Z,5.37
2019-04-29T04:01:15.417Z,4.60
2019-04-29T04:02:41.722Z,3.90
2019-04-29T04:03:53.556Z,2.92
2019-04-29T04:05:11.483Z,5.30
2019-04-29T04:06:33.549Z,4.37
2019-04-29T04:07:43.654Z,3.27
2019-04-29T04:09:05.973Z,6.58
2019-04-29T04:10:03.774Z,4.20
2019-04-29T04:11:08.026Z,3.80
2019-04-29T04:12:12.467Z,5.17
2019-04-29T04:13:16.792Z,2.90
2019-04-29T04:14:21.174Z,8.13
2019-04-29T04:15:25.829Z,4.22
2019-04-29T04:16:49.137Z,6.85
2019-04-29T04:18:07.679Z,3.90
2019-04-29T04:19:11.947Z,6.03
2019-04-29T04:20:16.226Z,8.28
2019-04-29T04:21:20.564Z,4.20
2019-04-29T04:22:24.841Z,4.47
2019-04-29T04:23:29.203Z,7.72
2019-04-29T04:24:33.461Z,3.25
2019-04-29T04:25:37.916Z,4.22
2019-04-29T04:26:42.123Z,6.75
2019-04-29T04:27:46.835Z,3.87
2019-04-29T04:28:51.002Z,3.08
2019-04-29T04:29:55.320Z,3.62
2019-04-29T04:30:59.736Z,3.45
2019-04-29T04:32:04.153Z,6.03
2019-04-29T04:33:08.589Z,4.45
2019-04-29T04:34:12.982Z,5.72
2019-04-29T04:35:17.319Z,3.45
2019-04-29T04:36:21.455Z,5.03
2019-04-29T04:37:25.782Z,5.25
2019-04-29T04:38:29.939Z,5.55
2019-04-29T04:39:35.971Z,4.53
2019-04-29T04:40:44.560Z,3.60
2019-04-29T04:41:48.905Z,6.70
2019-04-29T04:42:53.104Z,3.55
2019-04-29T04:43:57.323Z,5.05
2019-04-29T04:45:01.597Z,5.37
2019-04-29T04:46:05.970Z,4.58
2019-04-29T04:47:10.112Z,3.72
2019-04-29T04:48:14.312Z,4.90
2019-04-29T04:49:18.514Z,5.60
2019-04-29T04:50:22.681Z,7.33
2019-04-29T04:51:27.158Z,7.92
2019-04-29T04:52:31.473Z,8.08
2019-04-29T04:53:35.784Z,7.50
2019-04-29T04:54:40.090Z,7.17
2019-04-29T04:55:45.769Z,6.53
2019-04-29T04:56:50.366Z,5.30
2019-04-29T04:57:55.003Z,7.75
2019-04-29T04:58:59.247Z,4.83
2019-04-29T05:00:05.575Z,4.80
2019-04-29T05:01:09.669Z,8.95
2019-04-29T05:02:13.883Z,4.17
2019-04-29T05:03:18.069Z,6.17
2019-04-29T05:04:22.359Z,3.37
2019-04-29T05:05:26.543Z,4.37
2019-04-29T05:06:30.885Z,4.90
2019-04-29T05:07:35.167Z,5.20
2019-04-29T05:08:39.827Z,4.95
2019-04-29T05:09:43.984Z,4.30
2019-04-29T05:10:48.135Z,6.03
2019-04-29T05:11:52.249Z,6.33
2019-04-29T05:12:56.519Z,4.00
2019-04-29T05:14:00.942Z,6.85
2019-04-29T05:15:05.432Z,4.17
2019-04-29T05:16:09.589Z,5.58
2019-04-29T05:17:13.925Z,5.97
2019-04-29T05:18:18.259Z,7.80
2019-04-29T05:19:22.443Z,5.75
2019-04-29T05:20:26.653Z,6.70
2019-04-29T05:21:30.885Z,3.87
2019-04-29T05:22:35.199Z,8.60
2019-04-29T05:23:41.626Z,5.45
2019-04-29T05:24:45.699Z,5.03
2019-04-29T05:25:50.020Z,5.85
2019-04-29T05:26:54.351Z,6.67
2019-04-29T05:27:58.741Z,6.95
2019-04-29T05:29:03.078Z,6.30
2019-04-29T05:30:07.887Z,9.15
2019-04-29T05:31:12.207Z,4.53
2019-04-29T05:32:16.513Z,4.50
2019-04-29T05:33:20.808Z,4.28
2019-04-29T05:34:26.787Z,9.45
2019-04-29T05:35:40.107Z,5.35
2019-04-29T05:37:05.172Z,4.45
2019-04-29T05:38:43.901Z,3.33
2019-04-29T05:39:48.267Z,6.58
2019-04-29T05:40:52.766Z,8.10
2019-04-29T05:41:57.097Z,7.40
2019-04-29T05:43:01.331Z,6.75
2019-04-29T05:44:11.840Z,9.18
2019-04-29T05:45:24.142Z,6.17
2019-04-29T05:46:41.529Z,4.72
2019-04-29T05:47:57.097Z,4.15
2019-04-29T05:49:02.515Z,7.83
2019-04-29T05:50:40.028Z,4.03
2019-04-29T05:52:06.067Z,6.05
2019-04-29T05:53:23.798Z,6.83
2019-04-29T05:54:31.720Z,3.70
2019-04-29T05:55:34.302Z,5.53
2019-04-29T05:56:38.542Z,6.00
2019-04-29T05:57:42.821Z,9.60
2019-04-29T05:58:47.044Z,10.93
2019-04-29T05:59:51.507Z,7.05
2019-04-29T06:00:59.971Z,6.40
2019-04-29T06:02:04.379Z,4.70
2019-04-29T06:03:08.639Z,9.05
2019-04-29T06:04:16.442Z,4.22
2019-04-29T06:05:18.866Z,6.95
2019-04-29T06:06:23.138Z,9.05
2019-04-29T06:07:27.421Z,4.37
2019-04-29T06:08:34.404Z,4.45
2019-04-29T06:09:37.660Z,7.53
2019-04-29T06:10:42.206Z,4.55
2019-04-29T06:11:46.645Z,7.35
2019-04-29T06:12:50.832Z,9.55
2019-04-29T06:13:55.150Z,10.20
2019-04-29T06:14:59.402Z,7.47
2019-04-29T06:16:03.629Z,5.08
2019-04-29T06:17:07.917Z,8.88
2019-04-29T06:18:12.308Z,8.33
2019-04-29T06:19:16.637Z,6.87
2019-04-29T06:20:22.888Z,5.25
2019-04-29T06:21:26.867Z,8.90
2019-04-29T06:22:31.377Z,5.37
2019-04-29T06:23:35.661Z,6.05
2019-04-29T06:24:41.042Z,10.20
2019-04-29T06:25:46.105Z,6.90
2019-04-29T06:26:50.367Z,5.60
2019-04-29T06:27:54.520Z,7.28
2019-04-29T06:28:58.825Z,9.93
2019-04-29T06:30:04.895Z,6.28
2019-04-29T06:31:09.286Z,6.67
2019-04-29T06:32:13.607Z,6.92
2019-04-29T06:33:17.871Z,7.15
2019-04-29T06:34:22.251Z,9.68
2019-04-29T06:35:26.533Z,8.88
2019-04-29T06:36:30.829Z,9.93
2019-04-29T06:37:34.969Z,7.33
2019-04-29T06:38:39.198Z,7.30
2019-04-29T06:39:43.967Z,10.63
2019-04-29T06:40:48.255Z,10.95
2019-04-29T06:41:52.373Z,9.45
2019-04-29T06:42:56.685Z,10.70
2019-04-29T06:44:06.266Z,8.25
2019-04-29T06:45:07.326Z,9.83
2019-04-29T06:46:11.525Z,8.13
2019-04-29T06:47:17.082Z,8.08
2019-04-29T06:48:21.866Z,6.85
2019-04-29T06:49:26.040Z,6.22
2019-04-29T06:50:30.338Z,8.93
2019-04-29T06:51:34.499Z,8.20
2019-04-29T06:52:38.704Z,11.30
2019-04-29T06:53:42.980Z,10.72
2019-04-29T06:54:47.687Z,13.13
2019-04-29T06:55:52.401Z,6.72
2019-04-29T06:56:56.755Z,11.70
2019-04-29T06:58:01.063Z,11.03
2019-04-29T06:59:07.562Z,7.25
2019-04-29T07:00:11.763Z,7.75
2019-04-29T07:01:15.961Z,7.92
2019-04-29T07:02:20.327Z,15.90
2019-04-29T07:03:25.410Z,8.90
2019-04-29T07:04:36.968Z,10.13
2019-04-29T07:05:36.792Z,11.30
2019-04-29T07:06:41.057Z,7.95
2019-04-29T07:07:45.218Z,10.35
2019-04-29T07:08:49.487Z,8.70
2019-04-29T07:09:56.825Z,12.53
2019-04-29T07:11:01.009Z,7.67
2019-04-29T07:12:08.262Z,12.58
2019-04-29T07:13:12.078Z,10.35
2019-04-29T07:14:16.371Z,10.85
2019-04-29T07:15:20.795Z,8.98
2019-04-29T07:16:27.242Z,7.80
2019-04-29T07:17:31.018Z,10.45
2019-04-29T07:18:35.263Z,11.65
2019-04-29T07:19:39.625Z,6.87
2019-04-29T07:20:43.925Z,7.45
2019-04-29T07:21:51.493Z,8.65
2019-04-29T07:22:56.435Z,7.83
2019-04-29T07:23:59.979Z,9.43
2019-04-29T07:25:04.493Z,11.40
2019-04-29T07:26:08.891Z,9.05
2019-04-29T07:27:13.153Z,13.28
2019-04-29T07:28:18.301Z,10.70
2019-04-29T07:29:29.662Z,7.70
2019-04-29T07:30:29.564Z,9.03
2019-04-29T07:31:35.177Z,11.03
2019-04-29T07:32:42.183Z,12.47
2019-04-29T07:33:45.601Z,9.75
2019-04-29T07:34:49.935Z,18.67
2019-04-29T07:35:54.286Z,18.70
2019-04-29T07:36:59.445Z,11.97
2019-04-29T07:38:04.484Z,12.10
2019-04-29T07:39:09.916Z,25.23
2019-04-29T07:40:14.500Z,12.25
2019-04-29T07:41:20.670Z,14.85
2019-04-29T07:42:31.895Z,8.93
2019-04-29T07:43:30.687Z,8.30
2019-04-29T07:44:44.483Z,9.50
2019-04-29T07:46:05.431Z,9.50
2019-04-29T07:47:09.985Z,11.97
2019-04-29T07:48:14.217Z,8.68
2019-04-29T07:49:18.938Z,10.03
2019-04-29T07:50:26.608Z,6.22
2019-04-29T07:51:29.776Z,9.03
2019-04-29T07:52:34.055Z,11.60
2019-04-29T07:53:45.315Z,10.58
2019-04-29T07:54:47.725Z,8.55
2019-04-29T07:55:50.389Z,8.25
2019-04-29T07:56:54.613Z,11.93
2019-04-29T07:57:58.901Z,12.82
2019-04-29T07:59:04.597Z,10.68
2019-04-29T08:00:12.927Z,13.50
2019-04-29T08:01:19.904Z,11.22
2019-04-29T08:02:22.433Z,8.95
2019-04-29T08:03:26.935Z,10.63
2019-04-29T08:04:31.408Z,16.17
2019-04-29T08:05:35.661Z,12.30
2019-04-29T08:06:42.713Z,9.10
2019-04-29T08:07:47.365Z,12.82
2019-04-29T08:08:55.010Z,13.80
2019-04-29T08:09:58.083Z,7.95
2019-04-29T08:11:02.377Z,14.00
2019-04-29T08:12:06.651Z,7.70
2019-04-29T08:13:12.914Z,10.88
2019-04-29T08:14:18.781Z,8.15
2019-04-29T08:15:23.047Z,11.55
2019-04-29T08:16:27.241Z,9.25
2019-04-29T08:17:31.452Z,14.43
2019-04-29T08:18:35.748Z,9.35
2019-04-29T08:19:40.027Z,13.43
2019-04-29T08:20:44.663Z,8.50
2019-04-29T08:21:49.809Z,13.95
2019-04-29T08:22:58.363Z,12.28
2019-04-29T08:24:01.216Z,11.28
2019-04-29T08:25:05.782Z,8.13
2019-04-29T08:26:10.139Z,10.58
2019-04-29T08:27:14.442Z,10.75
2019-04-29T08:28:18.723Z,12.47
2019-04-29T08:29:22.976Z,13.58
2019-04-29T08:30:27.204Z,10.15
2019-04-29T08:31:31.416Z,11.35
2019-04-29T08:32:36.381Z,11.15
2019-04-29T08:33:42.421Z,15.65
2019-04-29T08:34:47.817Z,13.55
2019-04-29T08:35:52.131Z,12.63
2019-04-29T08:36:56.508Z,10.05
2019-04-29T08:38:00.729Z,9.28
2019-04-29T08:39:08.825Z,12.25
2019-04-29T08:40:16.254Z,7.92
2019-04-29T08:41:20.949Z,13.38
2019-04-29T08:42:28.551Z,10.95
2019-04-29T08:43:57.841Z,8.78
2019-04-29T08:45:10.687Z,10.05
2019-04-29T08:46:18.996Z,9.93
2019-04-29T08:47:30.520Z,12.58
2019-04-29T08:48:32.163Z,12.20
2019-04-29T08:49:36.519Z,11.15
2019-04-29T08:50:41.145Z,11.20
2019-04-29T08:51:45.398Z,12.10
2019-04-29T08:52:49.705Z,11.33
2019-04-29T08:53:53.952Z,11.35
2019-04-29T08:54:58.188Z,7.92
2019-04-29T08:56:05.553Z,15.35
2019-04-29T08:57:08.581Z,10.40
2019-04-29T08:58:12.962Z,14.25
2019-04-29T08:59:20.686Z,10.05
2019-04-29T09:00:23.593Z,7.47
2019-04-29T09:01:29.172Z,13.20
2019-04-29T09:02:35.589Z,8.15
2019-04-29T09:03:40.920Z,8.50
2019-04-29T09:04:53.496Z,15.28
2019-04-29T09:06:04.241Z,13.85
2019-04-29T09:06:57.391Z,13.65
2019-04-29T09:08:01.615Z,12.68
2019-04-29T09:09:10.472Z,10.72
2019-04-29T09:10:13.410Z,9.63
2019-04-29T09:11:17.770Z,12.43
2019-04-29T09:12:24.194Z,10.55
2019-04-29T09:13:28.233Z,8.45
2019-04-29T09:14:32.451Z,8.95
2019-04-29T09:15:36.660Z,10.72
2019-04-29T09:16:40.819Z,9.85
2019-04-29T09:17:45.053Z,8.73
2019-04-29T09:18:49.393Z,8.15
2019-04-29T09:19:53.665Z,10.58
2019-04-29T09:20:57.935Z,9.48
2019-04-29T09:22:04.446Z,11.20
2019-04-29T09:23:11.521Z,10.30
2019-04-29T09:24:15.779Z,9.63
2019-04-29T09:25:41.917Z,10.85
2019-04-29T09:26:54.286Z,9.18
2019-04-29T09:27:59.435Z,10.20
2019-04-29T09:29:22.965Z,9.45
2019-04-29T09:30:27.649Z,12.30
2019-04-29T09:31:31.927Z,11.00
2019-04-29T09:32:38.121Z,7.72
2019-04-29T09:33:44.125Z,9.78
2019-04-29T09:34:48.613Z,7.42
2019-04-29T09:35:52.800Z,9.58
2019-04-29T09:36:57.147Z,7.72
2019-04-29T09:38:01.433Z,7.67
2019-04-29T09:39:06.115Z,7.10
2019-04-29T09:40:12.879Z,9.50
2019-04-29T09:41:42.148Z,6.05
2019-04-29T09:43:26.006Z,7.50
2019-04-29T09:44:58.603Z,10.10
2019-04-29T09:46:09.043Z,12.98
2019-04-29T09:47:14.147Z,10.08
2019-04-29T09:48:18.831Z,9.33
2019-04-29T09:49:23.051Z,7.80
2019-04-29T09:50:28.586Z,8.90
2019-04-29T09:51:32.932Z,8.40
2019-04-29T09:52:37.468Z,11.35
2019-04-29T09:53:41.714Z,6.20
2019-04-29T09:54:45.899Z,12.95
2019-04-29T09:55:50.453Z,8.85
2019-04-29T09:56:55.085Z,10.98
2019-04-29T09:57:59.269Z,10.43
2019-04-29T09:59:24.044Z,13.45
2019-04-29T10:00:59.761Z,9.20
2019-04-29T10:02:26.344Z,10.90
2019-04-29T10:03:56.889Z,11.73
2019-04-29T10:05:15.368Z,11.28
2019-04-29T10:06:23.024Z,10.50
2019-04-29T10:07:27.527Z,9.33
2019-04-29T10:08:31.739Z,7.37
2019-04-29T10:09:36.009Z,10.10
2019-04-29T10:10:40.241Z,9.53
2019-04-29T10:11:44.469Z,9.30
2019-04-29T10:12:48.686Z,8.93
2019-04-29T10:13:53.162Z,7.42
2019-04-29T10:14:57.511Z,7.47
2019-04-29T10:16:15.163Z,9.93
2019-04-29T10:17:26.635Z,7.70
2019-04-29T10:18:47.769Z,13.70
2019-04-29T10:20:11.047Z,9.13
2019-04-29T10:21:16.587Z,8.00
2019-04-29T10:22:22.193Z,7.67
2019-04-29T10:23:26.470Z,6.78
2019-04-29T10:24:30.677Z,8.83
2019-04-29T10:25:35.289Z,6.62
2019-04-29T10:26:39.609Z,6.42
2019-04-29T10:27:43.867Z,8.55
2019-04-29T10:28:55.351Z,6.03
2019-04-29T10:29:59.660Z,7.95
2019-04-29T10:31:05.688Z,5.53
2019-04-29T10:32:10.003Z,7.37
2019-04-29T10:33:17.675Z,5.95
2019-04-29T10:34:21.209Z,6.90
2019-04-29T10:35:25.448Z,7.78
2019-04-29T10:36:29.584Z,7.17
2019-04-29T10:37:33.831Z,10.95
2019-04-29T10:38:40.587Z,8.53
2019-04-29T10:39:52.871Z,9.43
2019-04-29T10:41:05.737Z,6.83
2019-04-29T10:42:10.589Z,9.18
2019-04-29T10:43:53.822Z,10.95
2019-04-29T10:45:13.646Z,11.70
2019-04-29T10:46:35.813Z,8.20
2019-04-29T10:47:58.867Z,7.65
2019-04-29T10:49:11.364Z,9.50
2019-04-29T10:50:24.637Z,7.28
2019-04-29T10:51:28.956Z,9.58
2019-04-29T10:52:34.566Z,5.67
2019-04-29T10:53:39.643Z,12.70
2019-04-29T10:54:44.062Z,10.35
2019-04-29T10:55:48.389Z,8.88
2019-04-29T10:56:52.887Z,7.17
2019-04-29T10:57:57.208Z,7.20
2019-04-29T10:59:04.591Z,7.67
2019-04-29T11:00:32.496Z,6.90
2019-04-29T11:02:34.190Z,8.80
2019-04-29T11:03:38.569Z,7.37
2019-04-29T11:04:42.940Z,9.70
2019-04-29T11:06:00.278Z,8.13
2019-04-29T11:06:55.752Z,8.85
2019-04-29T11:08:04.662Z,9.35
2019-04-29T11:09:36.399Z,5.72
2019-04-29T11:10:40.761Z,8.35
2019-04-29T11:11:45.757Z,7.25
2019-04-29T11:12:50.016Z,5.05
2019-04-29T11:13:57.649Z,7.55
2019-04-29T11:15:01.734Z,7.97
2019-04-29T11:16:06.859Z,5.50
2019-04-29T11:17:16.552Z,7.17
2019-04-29T11:18:18.180Z,5.90
2019-04-29T11:19:22.917Z,6.72
2019-04-29T11:20:27.607Z,5.60
2019-04-29T11:21:31.937Z,7.33
2019-04-29T11:22:40.671Z,7.33
2019-04-29T11:23:57.986Z,6.08
2019-04-29T11:25:21.247Z,5.83
2019-04-29T11:27:10.711Z,6.30
2019-04-29T11:28:02.960Z,7.20
2019-04-29T11:29:09.348Z,8.03
2019-04-29T11:30:16.431Z,6.55
2019-04-29T11:31:20.849Z,7.12
2019-04-29T11:32:37.862Z,6.45
2019-04-29T11:34:01.071Z,5.35
2019-04-29T11:35:19.638Z,8.80
2019-04-29T11:36:25.329Z,10.05
2019-04-29T11:37:30.013Z,6.75
2019-04-29T11:38:38.217Z,4.97
2019-04-29T11:39:40.551Z,7.95
2019-04-29T11:40:45.821Z,5.95
2019-04-29T11:41:54.276Z,8.83
2019-04-29T11:42:56.244Z,7.22
2019-04-29T11:44:00.781Z,7.45
2019-04-29T11:45:09.121Z,5.37
2019-04-29T11:46:14.453Z,6.15
2019-04-29T11:47:20.860Z,8.83
2019-04-29T11:48:25.827Z,6.22
2019-04-29T11:49:38.992Z,6.83
2019-04-29T11:50:49.995Z,6.12
2019-04-29T11:52:09.329Z,5.70
2019-04-29T11:53:01.297Z,7.55
2019-04-29T11:54:08.352Z,9.13
2019-04-29T11:55:14.067Z,7.00
2019-04-29T11:56:17.945Z,5.92
2019-04-29T11:57:41.404Z,6.75
2019-04-29T11:58:55.723Z,6.78
2019-04-29T12:00:17.677Z,9.20
2019-04-29T12:01:51.817Z,6.40
2019-04-29T12:02:56.180Z,9.30
2019-04-29T12:04:02.210Z,6.53
2019-04-29T12:05:31.975Z,6.42
2019-04-29T12:06:36.323Z,5.12
2019-04-29T12:07:40.733Z,9.18
2019-04-29T12:08:48.045Z,6.92
2019-04-29T12:09:51.755Z,6.25
2019-04-29T12:11:06.544Z,5.90
2019-04-29T12:12:02.090Z,6.67
2019-04-29T12:13:08.995Z,5.60
2019-04-29T12:14:28.984Z,5.85
2019-04-29T12:15:45.085Z,5.17
2019-04-29T12:17:06.623Z,4.87
2019-04-29T12:18:19.884Z,4.62
2019-04-29T12:19:27.817Z,6.20
2019-04-29T12:20:40.477Z,7.80
2019-04-29T12:21:45.361Z,7.67
2019-04-29T12:22:49.586Z,5.30
2019-04-29T12:23:54.967Z,6.62
2019-04-29T12:24:59.259Z,5.37
2019-04-29T12:26:05.004Z,5.10
2019-04-29T12:27:14.735Z,4.67
2019-04-29T12:28:19.359Z,6.62
2019-04-29T12:29:23.178Z,4.90
2019-04-29T12:30:34.606Z,4.72
2019-04-29T12:31:49.432Z,6.05
2019-04-29T12:33:15.253Z,4.30
2019-04-29T12:34:37.261Z,5.08
2019-04-29T12:35:51.985Z,5.85
2019-04-29T12:36:56.822Z,8.38
2019-04-29T12:38:20.471Z,4.78
2019-04-29T12:39:59.731Z,5.20
2019-04-29T12:41:29.805Z,9.63
2019-04-29T12:42:55.749Z,7.30
2019-04-29T12:44:06.281Z,4.22
2019-04-29T12:45:24.036Z,4.97
2019-04-29T12:46:47.013Z,5.80
2019-04-29T12:47:51.445Z,5.60
2019-04-29T12:48:55.755Z,4.80
2019-04-29T12:49:59.998Z,8.30
2019-04-29T12:51:04.237Z,9.58
2019-04-29T12:52:08.568Z,5.90
2019-04-29T12:53:12.951Z,4.15
2019-04-29T12:54:17.188Z,6.25
2019-04-29T12:55:43.441Z,4.53
2019-04-29T12:56:36.329Z,4.12
2019-04-29T12:57:40.551Z,7.65
2019-04-29T12:58:50.218Z,4.78
2019-04-29T12:59:50.733Z,6.90
2019-04-29T13:01:01.254Z,5.28
2019-04-29T13:02:14.176Z,4.70
2019-04-29T13:03:41.095Z,4.83
2019-04-29T13:05:03.249Z,4.22
2019-04-29T13:06:12.871Z,4.35
2019-04-29T13:07:39.090Z,3.75
2019-04-29T13:08:46.509Z,3.95
2019-04-29T13:09:51.549Z,4.03
2019-04-29T13:10:58.637Z,4.15
2019-04-29T13:12:17.677Z,7.60
2019-04-29T13:13:09.360Z,3.70
2019-04-29T13:14:13.639Z,3.62
2019-04-29T13:15:34.472Z,3.65
2019-04-29T13:16:57.078Z,3.98
2019-04-29T13:18:13.877Z,5.17
2019-04-29T13:19:20.555Z,4.30
2019-04-29T13:20:24.501Z,4.50
2019-04-29T13:21:28.791Z,5.08
2019-04-29T13:22:33.090Z,4.50
2019-04-29T13:23:55.024Z,4.20
2019-04-29T13:24:44.450Z,4.15
2019-04-29T13:25:50.905Z,4.00
2019-04-29T13:26:54.861Z,4.03
2019-04-29T13:28:03.990Z,5.42
2019-04-29T13:29:05.278Z,4.40
2019-04-29T13:30:15.079Z,4.47
2019-04-29T13:31:20.102Z,5.12
2019-04-29T13:32:28.094Z,5.50
2019-04-29T13:33:29.399Z,5.50
2019-04-29T13:34:38.086Z,4.45
2019-04-29T13:35:48.607Z,6.03
2019-04-29T13:37:06.134Z,6.58
2019-04-29T13:37:54.296Z,3.62
2019-04-29T13:38:58.649Z,6.65
2019-04-29T13:40:02.933Z,4.17
2019-04-29T13:41:13.557Z,4.28
2019-04-29T13:42:15.817Z,5.85
2019-04-29T13:43:20.714Z,6.40
2019-04-29T13:44:25.251Z,5.92
2019-04-29T13:45:37.144Z,3.90
2019-04-29T13:47:00.563Z,6.25
2019-04-29T13:48:23.991Z,4.95
2019-04-29T13:49:35.989Z,5.70
2019-04-29T13:50:50.251Z,4.80
2019-04-29T13:51:55.483Z,5.00
2019-04-29T13:52:59.761Z,4.55
2019-04-29T13:54:06.092Z,4.47
2019-04-29T13:55:17.969Z,5.60
2019-04-29T13:56:32.641Z,4.67
2019-04-29T13:57:22.115Z,8.40
2019-04-29T13:58:27.028Z,4.83
2019-04-29T13:59:42.017Z,5.83
2019-04-29T14:01:00.080Z,6.40
2019-04-29T14:02:12.740Z,4.97
2019-04-29T14:03:27.901Z,4.42
2019-04-29T14:04:35.713Z,8.08
2019-04-29T14:05:41.720Z,5.65
2019-04-29T14:06:56.715Z,6.08
2019-04-29T14:07:54.011Z,5.40
2019-04-29T14:08:59.966Z,8.15
2019-04-29T14:10:05.489Z,5.58
2019-04-29T14:11:09.811Z,5.70
2019-04-29T14:12:47.276Z,6.95
2019-04-29T14:13:21.055Z,5.30
2019-04-29T14:14:28.268Z,5.60
2019-04-29T14:15:33.906Z,5.47
2019-04-29T14:16:38.072Z,5.80
2019-04-29T14:17:42.277Z,5.95
2019-04-29T14:18:48.206Z,5.60
2019-04-29T14:19:52.865Z,5.35
2019-04-29T14:20:57.097Z,6.60
2019-04-29T14:22:01.353Z,6.12
2019-04-29T14:23:05.680Z,5.65
2019-04-29T14:24:10.281Z,4.90
2019-04-29T14:25:14.500Z,7.60
2019-04-29T14:26:18.685Z,7.90
2019-04-29T14:27:25.291Z,5.87
2019-04-29T14:28:28.855Z,6.97
2019-04-29T14:29:33.217Z,5.53
2019-04-29T14:30:39.173Z,6.10
2019-04-29T14:31:43.555Z,5.10
2019-04-29T14:32:49.801Z,5.67
2019-04-29T14:34:02.729Z,5.22
2019-04-29T14:35:13.661Z,4.75
2019-04-29T14:36:20.007Z,6.42
2019-04-29T14:37:25.554Z,4.67
2019-04-29T14:38:30.059Z,4.85
2019-04-29T14:39:37.196Z,4.17
2019-04-29T14:40:42.860Z,5.55
2019-04-29T14:41:54.855Z,5.62
2019-04-29T14:43:27.116Z,4.25
2019-04-29T14:44:40.812Z,4.40
2019-04-29T14:46:15.681Z,5.75
2019-04-29T14:47:36.937Z,8.98
2019-04-29T14:48:45.517Z,6.10
2019-04-29T14:49:55.170Z,4.92
2019-04-29T14:50:59.557Z,4.67
2019-04-29T14:52:08.177Z,4.78
2019-04-29T14:53:09.869Z,4.53
2019-04-29T14:54:14.088Z,4.80
2019-04-29T14:55:20.094Z,4.30
2019-04-29T14:56:24.573Z,4.75
2019-04-29T14:57:28.897Z,5.20